sensor_id;sensor_type;location;lat;lon;timestamp;pressure;altitude;pressure_sealevel;temperature;humidity
84926;BME280;75187;48.190;16.294;2024-03-23T00:54:42;98661.34;;;15.11;58.97
84926;BME280;75187;48.190;16.294;2024-03-23T00:57:27;98659.69;;;15.10;58.79
84926;BME280;75187;48.190;16.294;2024-03-23T01:00:13;98658.69;;;15.11;59.76
84926;BME280;75187;48.190;16.294;2024-03-23T01:02:58;98658.69;;;15.11;58.72
84926;BME280;75187;48.190;16.294;2024-03-23T01:05:43;98630.09;;;14.81;59.03
84926;BME280;75187;48.190;16.294;2024-03-23T01:08:29;98648.03;;;14.87;59.08
84926;BME280;75187;48.190;16.294;2024-03-23T01:11:14;98649.69;;;14.88;59.60
84926;BME280;75187;48.190;16.294;2024-03-23T01:13:59;98638.75;;;14.91;59.16
84926;BME280;75187;48.190;16.294;2024-03-23T01:16:45;98647.72;;;14.98;59.27
84926;BME280;75187;48.190;16.294;2024-03-23T01:19:30;98651.72;;;15.10;59.37
84926;BME280;75187;48.190;16.294;2024-03-23T01:22:15;98642.75;;;15.03;58.38
84926;BME280;75187;48.190;16.294;2024-03-23T01:25:00;98640.06;;;14.87;58.93
84926;BME280;75187;48.190;16.294;2024-03-23T01:27:46;98640.38;;;14.76;59.48
84926;BME280;75187;48.190;16.294;2024-03-23T01:30:31;98634.75;;;14.87;58.93
84926;BME280;75187;48.190;16.294;2024-03-23T01:33:17;98633.94;;;14.94;59.00
84926;BME280;75187;48.190;16.294;2024-03-23T01:36:02;98633.13;;;15.02;59.11
84926;BME280;75187;48.190;16.294;2024-03-23T01:38:47;98627.50;;;15.05;58.93
84926;BME280;75187;48.190;16.294;2024-03-23T01:41:33;98625.16;;;15.10;57.63
84926;BME280;75187;48.190;16.294;2024-03-23T01:44:18;98544.41;;;14.55;58.70
84926;BME280;75187;48.190;16.294;2024-03-23T01:47:04;98628.66;;;15.18;57.96
84926;BME280;75187;48.190;16.294;2024-03-23T01:49:49;98625.81;;;15.12;58.24
84926;BME280;75187;48.190;16.294;2024-03-23T01:52:34;98624.88;;;15.13;57.65
84926;BME280;75187;48.190;16.294;2024-03-23T01:55:20;98609.56;;;15.07;57.95
84926;BME280;75187;48.190;16.294;2024-03-23T01:58:06;98616.19;;;15.11;57.72
84926;BME280;75187;48.190;16.294;2024-03-23T02:00:51;98609.91;;;15.12;58.17
84926;BME280;75187;48.190;16.294;2024-03-23T02:03:37;98609.75;;;15.13;58.09
84926;BME280;75187;48.190;16.294;2024-03-23T02:06:24;98603.91;;;15.10;57.61
84926;BME280;75187;48.190;16.294;2024-03-23T02:09:09;98604.09;;;15.16;57.50
84926;BME280;75187;48.190;16.294;2024-03-23T02:11:54;98598.63;;;15.18;57.47
84926;BME280;75187;48.190;16.294;2024-03-23T02:14:40;98587.66;;;15.21;57.59
84926;BME280;75187;48.190;16.294;2024-03-23T02:17:25;98599.13;;;15.21;57.78
84926;BME280;75187;48.190;16.294;2024-03-23T02:20:11;98595.63;;;15.05;57.88
84926;BME280;75187;48.190;16.294;2024-03-23T02:22:57;98577.84;;;14.97;58.18
84926;BME280;75187;48.190;16.294;2024-03-23T02:25:42;98578.66;;;14.98;58.53
84926;BME280;75187;48.190;16.294;2024-03-23T02:28:27;98572.22;;;15.00;58.01
84926;BME280;75187;48.190;16.294;2024-03-23T02:31:13;98578.38;;;15.01;58.43
84926;BME280;75187;48.190;16.294;2024-03-23T02:33:58;98565.09;;;15.01;58.24
84926;BME280;75187;48.190;16.294;2024-03-23T02:36:44;98564.09;;;15.02;58.91
84926;BME280;75187;48.190;16.294;2024-03-23T02:39:29;98554.13;;;14.96;58.24
84926;BME280;75187;48.190;16.294;2024-03-23T02:42:14;98501.00;;;14.64;58.68
84926;BME280;75187;48.190;16.294;2024-03-23T02:44:59;98551.47;;;14.88;58.49
84926;BME280;75187;48.190;16.294;2024-03-23T02:47:45;98520.56;;;14.63;59.60
84926;BME280;75187;48.190;16.294;2024-03-23T02:50:30;98535.81;;;14.69;59.20
84926;BME280;75187;48.190;16.294;2024-03-23T02:53:16;98545.47;;;14.78;59.35
84926;BME280;75187;48.190;16.294;2024-03-23T02:56:01;98539.31;;;14.69;58.96
84926;BME280;75187;48.190;16.294;2024-03-23T02:58:46;98546.44;;;14.69;59.15
84926;BME280;75187;48.190;16.294;2024-03-23T03:01:32;98533.16;;;14.69;59.37
84926;BME280;75187;48.190;16.294;2024-03-23T03:04:17;98503.97;;;14.53;59.95
84926;BME280;75187;48.190;16.294;2024-03-23T03:07:02;98537.34;;;14.71;60.22
84926;BME280;75187;48.190;16.294;2024-03-23T03:09:48;98530.22;;;14.72;59.38
84926;BME280;75187;48.190;16.294;2024-03-23T03:12:33;98504.97;;;14.60;59.53
84926;BME280;75187;48.190;16.294;2024-03-23T03:15:18;98527.88;;;14.77;59.91
84926;BME280;75187;48.190;16.294;2024-03-23T03:18:04;98535.84;;;14.85;59.50
84926;BME280;75187;48.190;16.294;2024-03-23T03:20:49;98522.56;;;14.77;59.59
84926;BME280;75187;48.190;16.294;2024-03-23T03:23:35;98424.94;;;14.15;59.35
84926;BME280;75187;48.190;16.294;2024-03-23T03:26:20;98514.09;;;14.73;59.72
84926;BME280;75187;48.190;16.294;2024-03-23T03:29:05;98523.25;;;14.79;59.48
84926;BME280;75187;48.190;16.294;2024-03-23T03:31:50;98493.69;;;14.50;59.88
84926;BME280;75187;48.190;16.294;2024-03-23T03:34:36;98508.63;;;14.59;60.20
84926;BME280;75187;48.190;16.294;2024-03-23T03:37:21;98516.94;;;14.80;59.61
84926;BME280;75187;48.190;16.294;2024-03-23T03:40:07;98512.97;;;14.76;59.22
84926;BME280;75187;48.190;16.294;2024-03-23T03:42:52;98511.78;;;14.70;59.95
84926;BME280;75187;48.190;16.294;2024-03-23T03:45:37;98509.47;;;14.75;59.62
84926;BME280;75187;48.190;16.294;2024-03-23T03:48:23;98477.44;;;14.53;59.74
84926;BME280;75187;48.190;16.294;2024-03-23T03:51:08;98366.88;;;13.80;60.09
84926;BME280;75187;48.190;16.294;2024-03-23T03:53:54;98515.91;;;14.65;59.77
84926;BME280;75187;48.190;16.294;2024-03-23T03:56:39;98505.16;;;14.67;59.08
84926;BME280;75187;48.190;16.294;2024-03-23T03:59:24;98506.94;;;14.58;60.96
84926;BME280;75187;48.190;16.294;2024-03-23T04:02:10;98505.28;;;14.57;60.47
84926;BME280;75187;48.190;16.294;2024-03-23T04:04:55;98504.09;;;14.52;60.65
84926;BME280;75187;48.190;16.294;2024-03-23T04:07:41;98502.31;;;14.52;59.72
84926;BME280;75187;48.190;16.294;2024-03-23T04:10:27;98495.38;;;14.59;60.68
84926;BME280;75187;48.190;16.294;2024-03-23T04:13:13;98490.72;;;14.61;60.42
84926;BME280;75187;48.190;16.294;2024-03-23T04:15:58;98495.34;;;14.67;59.91
84926;BME280;75187;48.190;16.294;2024-03-23T04:18:43;98487.41;;;14.59;60.55
84926;BME280;75187;48.190;16.294;2024-03-23T04:21:29;98401.06;;;14.07;59.77
84926;BME280;75187;48.190;16.294;2024-03-23T04:24:14;98483.41;;;14.55;60.17
84926;BME280;75187;48.190;16.294;2024-03-23T04:26:59;98481.03;;;14.44;59.84
84926;BME280;75187;48.190;16.294;2024-03-23T04:29:48;98474.78;;;14.45;60.62
84926;BME280;75187;48.190;16.294;2024-03-23T04:32:34;98485.69;;;14.42;60.88
84926;BME280;75187;48.190;16.294;2024-03-23T04:35:19;98492.34;;;14.46;59.99
84926;BME280;75187;48.190;16.294;2024-03-23T04:38:05;98459.28;;;14.25;60.45
84926;BME280;75187;48.190;16.294;2024-03-23T04:40:57;98482.03;;;14.43;60.52
84926;BME280;75187;48.190;16.294;2024-03-23T04:43:43;98455.09;;;14.14;60.37
84926;BME280;75187;48.190;16.294;2024-03-23T04:46:28;98478.41;;;14.36;60.98
84926;BME280;75187;48.190;16.294;2024-03-23T04:49:14;98473.41;;;14.33;61.51
84926;BME280;75187;48.190;16.294;2024-03-23T04:51:59;98469.13;;;14.40;61.37
84926;BME280;75187;48.190;16.294;2024-03-23T04:54:45;98464.47;;;14.42;60.55
84926;BME280;75187;48.190;16.294;2024-03-23T04:57:30;98465.81;;;14.46;61.01
84926;BME280;75187;48.190;16.294;2024-03-23T05:00:16;98463.81;;;14.40;61.09
84926;BME280;75187;48.190;16.294;2024-03-23T05:03:04;98456.81;;;14.31;61.03
84926;BME280;75187;48.190;16.294;2024-03-23T05:05:49;98451.50;;;14.23;61.92
84926;BME280;75187;48.190;16.294;2024-03-23T05:08:35;98449.78;;;14.14;62.52
84926;BME280;75187;48.190;16.294;2024-03-23T05:11:20;98436.94;;;14.19;62.64
84926;BME280;75187;48.190;16.294;2024-03-23T05:14:06;98392.91;;;13.93;61.58
84926;BME280;75187;48.190;16.294;2024-03-23T05:16:51;98435.13;;;14.28;61.76
84926;BME280;75187;48.190;16.294;2024-03-23T05:19:37;98433.47;;;14.27;61.18
84926;BME280;75187;48.190;16.294;2024-03-23T05:22:22;98404.03;;;14.04;62.41
84926;BME280;75187;48.190;16.294;2024-03-23T05:25:07;98420.88;;;14.29;61.85
84926;BME280;75187;48.190;16.294;2024-03-23T05:27:53;98433.28;;;14.28;62.47
84926;BME280;75187;48.190;16.294;2024-03-23T05:30:38;98435.94;;;14.28;60.99
84926;BME280;75187;48.190;16.294;2024-03-23T05:33:23;98437.59;;;14.29;62.49
84926;BME280;75187;48.190;16.294;2024-03-23T05:36:09;98388.81;;;14.06;62.88
84926;BME280;75187;48.190;16.294;2024-03-23T05:38:54;98405.09;;;14.19;62.03
84926;BME280;75187;48.190;16.294;2024-03-23T05:41:40;98429.97;;;14.42;60.72
84926;BME280;75187;48.190;16.294;2024-03-23T05:44:25;98424.34;;;14.37;61.23
84926;BME280;75187;48.190;16.294;2024-03-23T05:47:11;98419.53;;;14.33;61.35
84926;BME280;75187;48.190;16.294;2024-03-23T05:49:57;98413.72;;;14.21;61.94
84926;BME280;75187;48.190;16.294;2024-03-23T05:52:42;98420.19;;;14.27;61.63
84926;BME280;75187;48.190;16.294;2024-03-23T05:55:28;98336.91;;;13.88;61.01
84926;BME280;75187;48.190;16.294;2024-03-23T05:58:15;98422.38;;;14.39;61.50
84926;BME280;75187;48.190;16.294;2024-03-23T06:01:01;98356.31;;;13.96;61.45
84926;BME280;75187;48.190;16.294;2024-03-23T06:03:47;98420.03;;;14.28;61.67
84926;BME280;75187;48.190;16.294;2024-03-23T06:06:32;98414.88;;;14.35;61.38
84926;BME280;75187;48.190;16.294;2024-03-23T06:09:18;98426.00;;;14.38;61.53
84926;BME280;75187;48.190;16.294;2024-03-23T06:12:03;98418.91;;;14.39;61.47
84926;BME280;75187;48.190;16.294;2024-03-23T06:14:49;98417.06;;;14.39;61.69
84926;BME280;75187;48.190;16.294;2024-03-23T06:17:34;98415.06;;;14.41;61.07
84926;BME280;75187;48.190;16.294;2024-03-23T06:20:19;98406.09;;;14.42;61.58
